createdAt,value
2022-08-07T00:02:36.360Z,50.28
2022-08-07T00:04:57.988Z,50.58
2022-08-07T00:07:24.678Z,50.38
2022-08-07T00:10:11.094Z,50.53
2022-08-07T00:12:43.627Z,50.33
2022-08-07T00:15:25.847Z,50.13
2022-08-07T00:18:05.947Z,49.96
2022-08-07T00:20:34.373Z,50.09
2022-08-07T00:23:02.335Z,50.24
2022-08-07T00:25:28.971Z,50.51
2022-08-07T00:28:04.450Z,50.42
2022-08-07T00:30:31.701Z,50.83
2022-08-07T00:33:00.025Z,51.07
2022-08-07T00:35:30.096Z,50.95
2022-08-07T00:37:57.721Z,50.65
2022-08-07T00:40:40.041Z,50.82
2022-08-07T00:43:09.997Z,50.73
2022-08-07T00:45:39.246Z,50.86
2022-08-07T00:48:09.255Z,50.87
2022-08-07T00:50:46.687Z,50.82
2022-08-07T00:53:19.473Z,50.95
2022-08-07T00:56:02.139Z,51.04
2022-08-07T00:58:31.421Z,51.17
2022-08-07T01:00:58.754Z,51.54
2022-08-07T01:03:55.547Z,51.43
2022-08-07T01:06:12.710Z,51.30
2022-08-07T01:08:43.297Z,51.46
2022-08-07T01:12:04.404Z,51.13
2022-08-07T01:14:08.138Z,51.58
2022-08-07T01:16:36.875Z,51.59
2022-08-07T01:19:14.837Z,51.63
2022-08-07T01:21:48.547Z,51.58
2022-08-07T01:24:21.179Z,51.34
2022-08-07T01:26:52.110Z,50.88
2022-08-07T01:29:22.051Z,51.14
2022-08-07T01:31:49.615Z,51.45
2022-08-07T01:34:18.722Z,51.44
2022-08-07T01:36:52.708Z,51.47
2022-08-07T01:39:40.553Z,51.88
2022-08-07T01:42:39.874Z,52.59
2022-08-07T01:45:10.029Z,52.28
2022-08-07T01:48:29.654Z,51.99
2022-08-07T01:50:30.438Z,52.21
2022-08-07T01:52:58.893Z,52.21
2022-08-07T01:55:47.684Z,52.67
2022-08-07T01:58:27.188Z,52.11
2022-08-07T02:01:10.155Z,52.85
2022-08-07T02:04:01.265Z,53.02
2022-08-07T02:06:32.913Z,52.68
2022-08-07T02:09:03.746Z,53.03
2022-08-07T02:12:02.903Z,53.49
2022-08-07T02:14:36.325Z,51.80
2022-08-07T02:17:10.851Z,51.85
2022-08-07T02:20:04.874Z,52.31
2022-08-07T02:22:30.691Z,52.47
2022-08-07T02:24:59.075Z,52.52
2022-08-07T02:27:34.319Z,52.61
2022-08-07T02:30:03.998Z,52.53
2022-08-07T02:32:36.301Z,52.69
2022-08-07T02:35:09.306Z,52.61
2022-08-07T02:37:44.043Z,53.10
2022-08-07T02:40:30.060Z,52.65
2022-08-07T02:42:59.087Z,52.52
2022-08-07T02:45:58.788Z,53.20
2022-08-07T02:48:18.140Z,52.56
2022-08-07T02:50:50.488Z,52.79
2022-08-07T02:53:27.538Z,53.41
2022-08-07T02:56:03.055Z,53.01
2022-08-07T02:58:33.889Z,52.89
2022-08-07T03:01:03.193Z,53.14
2022-08-07T03:03:49.044Z,53.37
2022-08-07T03:06:32.083Z,52.91
2022-08-07T03:09:01.791Z,52.98
2022-08-07T03:11:29.505Z,53.18
2022-08-07T03:14:01.594Z,53.05
2022-08-07T03:16:30.868Z,53.45
2022-08-07T03:18:59.442Z,53.43
2022-08-07T03:21:28.606Z,53.49
2022-08-07T03:24:20.376Z,53.16
2022-08-07T03:26:57.835Z,53.34
2022-08-07T03:29:27.744Z,53.40
2022-08-07T03:31:56.011Z,53.26
2022-08-07T03:34:27.442Z,53.27
2022-08-07T03:36:55.079Z,53.24
2022-08-07T03:39:45.903Z,53.38
2022-08-07T03:42:13.532Z,53.21
2022-08-07T03:44:40.849Z,53.34
2022-08-07T03:47:13.287Z,53.35
2022-08-07T03:49:51.954Z,53.55
2022-08-07T03:52:26.521Z,53.82
2022-08-07T03:55:07.251Z,54.55
2022-08-07T03:58:35.122Z,53.99
2022-08-07T04:00:29.153Z,53.84
2022-08-07T04:02:58.983Z,54.02
2022-08-07T04:05:39.800Z,53.93
2022-08-07T04:08:11.241Z,54.16
2022-08-07T04:10:38.977Z,53.84
2022-08-07T04:13:07.760Z,53.99
2022-08-07T04:15:45.490Z,54.04
2022-08-07T04:18:58.299Z,54.17
2022-08-07T04:21:01.343Z,54.00
2022-08-07T04:23:43.653Z,54.28
2022-08-07T04:26:16.772Z,54.31
2022-08-07T04:28:43.949Z,54.59
2022-08-07T04:31:19.631Z,54.39
2022-08-07T04:33:47.370Z,54.29
2022-08-07T04:36:22.692Z,54.41
2022-08-07T04:38:52.937Z,54.45
2022-08-07T04:41:19.636Z,54.31
2022-08-07T04:44:09.645Z,54.87
2022-08-07T04:47:05.010Z,55.25
2022-08-07T04:49:57.864Z,55.55
2022-08-07T04:52:57.880Z,55.45
2022-08-07T04:58:07.557Z,55.54
2022-08-07T04:58:42.444Z,54.97
2022-08-07T05:01:18.040Z,55.87
2022-08-07T05:04:06.375Z,55.93
2022-08-07T05:06:59.103Z,55.90
2022-08-07T05:09:46.660Z,56.14
2022-08-07T05:12:26.882Z,55.78
2022-08-07T05:15:04.278Z,55.86
2022-08-07T05:17:52.045Z,55.51
2022-08-07T05:20:27.052Z,55.90
2022-08-07T05:22:56.905Z,55.19
2022-08-07T05:25:26.135Z,55.21
2022-08-07T05:28:20.980Z,55.45
2022-08-07T05:30:52.268Z,55.78
2022-08-07T05:33:20.877Z,55.67
2022-08-07T05:35:50.697Z,55.95
2022-08-07T05:38:59.452Z,55.93
2022-08-07T05:41:14.523Z,55.94
2022-08-07T05:44:07.584Z,56.58
2022-08-07T05:46:37.706Z,56.04
2022-08-07T05:49:11.641Z,56.22
2022-08-07T05:51:39.967Z,56.16
2022-08-07T05:54:12.865Z,56.22
2022-08-07T05:56:54.761Z,56.13
2022-08-07T05:59:24.662Z,56.31
2022-08-07T06:01:51.816Z,56.35
2022-08-07T06:04:21.425Z,56.49
2022-08-07T06:07:03.699Z,56.28
2022-08-07T06:09:44.908Z,56.40
2022-08-07T06:12:12.483Z,55.96
2022-08-07T06:14:43.261Z,55.54
2022-08-07T06:17:18.055Z,55.95
2022-08-07T06:20:03.296Z,55.49
2022-08-07T06:22:38.934Z,55.24
2022-08-07T06:25:10.307Z,55.38
2022-08-07T06:28:00.717Z,55.20
2022-08-07T06:30:35.542Z,54.90
2022-08-07T06:33:03.881Z,55.08
2022-08-07T06:35:45.509Z,54.70
2022-08-07T06:38:20.149Z,54.30
2022-08-07T06:40:51.100Z,53.95
2022-08-07T06:43:23.528Z,53.96
2022-08-07T06:45:50.906Z,53.50
2022-08-07T06:48:24.716Z,53.29
2022-08-07T06:50:53.362Z,53.34
2022-08-07T06:54:12.080Z,53.22
2022-08-07T06:56:15.193Z,52.76
2022-08-07T07:00:14.271Z,52.51
2022-08-07T07:01:38.825Z,52.89
2022-08-07T07:04:28.019Z,52.36
2022-08-07T07:07:01.293Z,52.49
2022-08-07T07:09:31.184Z,51.77
2022-08-07T07:12:19.567Z,51.25
2022-08-07T07:15:00.650Z,51.13
2022-08-07T07:17:45.344Z,50.54
2022-08-07T07:20:19.297Z,50.24
2022-08-07T07:24:09.997Z,50.02
2022-08-07T07:26:33.145Z,49.14
2022-08-07T07:29:22.708Z,49.24
2022-08-07T07:31:44.223Z,49.53
2022-08-07T07:34:19.758Z,49.08
2022-08-07T07:36:53.925Z,48.66
2022-08-07T07:39:25.603Z,48.52
2022-08-07T07:42:13.668Z,48.35
2022-08-07T07:44:45.744Z,48.05
2022-08-07T07:47:23.923Z,48.52
2022-08-07T07:50:36.313Z,48.42
2022-08-07T07:52:41.148Z,47.76
2022-08-07T07:55:11.018Z,47.22
2022-08-07T07:57:50.318Z,46.55
2022-08-07T08:00:29.382Z,46.71
2022-08-07T08:03:06.289Z,46.38
2022-08-07T08:05:43.233Z,46.26
2022-08-07T08:08:34.395Z,46.46
2022-08-07T08:11:08.159Z,46.25
2022-08-07T08:16:26.301Z,45.81
2022-08-07T08:18:58.256Z,45.37
2022-08-07T08:21:55.540Z,45.65
2022-08-07T08:24:51.276Z,45.04
2022-08-07T08:27:36.828Z,44.30
2022-08-07T08:30:07.941Z,44.88
2022-08-07T08:32:50.016Z,45.18
2022-08-07T08:35:28.751Z,44.94
2022-08-07T08:38:03.349Z,43.88
2022-08-07T08:40:35.972Z,44.81
2022-08-07T08:43:42.169Z,44.62
2022-08-07T08:46:28.842Z,45.33
2022-08-07T08:49:10.259Z,44.22
2022-08-07T08:52:13.981Z,44.91
2022-08-07T08:54:45.160Z,44.39
2022-08-07T08:57:40.363Z,44.60
2022-08-07T09:00:09.532Z,44.84
2022-08-07T09:02:39.073Z,44.79
2022-08-07T09:05:22.558Z,45.17
2022-08-07T09:08:24.377Z,45.51
2022-08-07T09:11:24.853Z,45.39
2022-08-07T09:14:15.775Z,46.04
2022-08-07T09:17:02.239Z,45.13
2022-08-07T09:19:51.441Z,44.54
2022-08-07T09:24:32.441Z,44.39
2022-08-07T09:25:58.608Z,43.69
2022-08-07T09:30:01.293Z,44.25
2022-08-07T09:31:40.577Z,43.36
2022-08-07T09:34:22.725Z,43.04
2022-08-07T09:36:52.702Z,42.35
2022-08-07T09:39:53.799Z,41.47
2022-08-07T09:42:17.202Z,41.89
2022-08-07T09:47:26.379Z,42.15
2022-08-07T09:48:11.736Z,42.26
2022-08-07T09:51:14.815Z,41.50
2022-08-07T09:54:02.673Z,41.78
2022-08-07T09:57:03.856Z,42.06
2022-08-07T10:00:03.756Z,41.82
2022-08-07T10:02:36.803Z,41.23
2022-08-07T10:05:58.900Z,40.50
2022-08-07T10:08:49.592Z,40.91
2022-08-07T10:12:01.807Z,40.53
2022-08-07T10:14:55.044Z,40.74
2022-08-07T10:18:00.824Z,40.49
2022-08-07T10:20:45.415Z,40.15
2022-08-07T10:24:06.070Z,40.31
2022-08-07T10:27:06.584Z,39.41
2022-08-07T10:29:54.958Z,39.61
2022-08-07T10:32:53.261Z,39.46
2022-08-07T10:35:53.563Z,39.24
2022-08-07T10:38:52.573Z,40.83
2022-08-07T10:42:01.651Z,41.46
2022-08-07T10:44:52.422Z,41.89
2022-08-07T10:47:54.063Z,42.15
2022-08-07T10:50:25.754Z,41.09
2022-08-07T10:53:08.103Z,41.25
2022-08-07T10:55:37.892Z,40.40
2022-08-07T10:58:36.732Z,41.05
2022-08-07T11:01:19.243Z,41.49
2022-08-07T11:04:23.388Z,39.58
2022-08-07T11:07:01.827Z,39.01
2022-08-07T11:10:07.221Z,37.30
2022-08-07T11:12:31.613Z,37.00
2022-08-07T11:15:04.310Z,37.13
2022-08-07T11:17:56.611Z,35.52
2022-08-07T11:21:02.947Z,33.85
2022-08-07T11:23:38.938Z,32.53
2022-08-07T11:26:12.972Z,32.07
2022-08-07T11:28:51.349Z,31.36
2022-08-07T11:31:35.114Z,32.55
2022-08-07T11:34:16.329Z,31.60
2022-08-07T11:36:56.478Z,31.45
2022-08-07T11:39:59.260Z,31.41
2022-08-07T11:42:21.953Z,31.83
2022-08-07T11:45:15.834Z,33.39
2022-08-07T11:47:59.552Z,33.45
2022-08-07T11:50:58.445Z,34.54
2022-08-07T11:54:00.686Z,34.21
2022-08-07T11:56:44.655Z,32.77
2022-08-07T12:00:11.219Z,35.22
2022-08-07T12:02:30.405Z,33.01
2022-08-07T12:05:15.075Z,31.83
2022-08-07T12:08:07.423Z,33.38
2022-08-07T12:11:08.205Z,33.90
2022-08-07T12:13:48.821Z,31.87
2022-08-07T12:16:29.930Z,30.72
2022-08-07T12:19:35.928Z,30.87
2022-08-07T12:22:55.901Z,31.56
2022-08-07T12:26:03.000Z,29.93
2022-08-07T12:28:49.876Z,29.50
2022-08-07T12:32:01.660Z,27.64
2022-08-07T12:34:31.991Z,27.88
2022-08-07T12:37:00.840Z,27.11
2022-08-07T12:39:42.122Z,26.05
2022-08-07T12:42:13.294Z,27.07
2022-08-07T12:44:45.421Z,26.86
2022-08-07T12:47:30.407Z,26.03
2022-08-07T12:50:38.460Z,25.00
2022-08-07T12:53:17.628Z,23.89
2022-08-07T12:56:04.285Z,25.88
2022-08-07T12:58:46.894Z,25.33
2022-08-07T13:01:28.200Z,25.64
2022-08-07T13:04:35.033Z,25.39
2022-08-07T13:08:12.181Z,24.89
2022-08-07T13:10:38.290Z,24.72
2022-08-07T13:13:48.946Z,23.32
2022-08-07T13:16:32.613Z,23.85
2022-08-07T13:19:18.080Z,22.80
2022-08-07T13:22:19.557Z,23.38
2022-08-07T13:25:08.620Z,23.49
2022-08-07T13:28:11.142Z,23.69
2022-08-07T13:30:40.296Z,24.24
2022-08-07T13:34:30.524Z,25.56
2022-08-07T13:36:39.660Z,24.52
2022-08-07T13:39:49.122Z,27.67
2022-08-07T13:42:10.529Z,24.52
2022-08-07T13:44:39.532Z,23.20
2022-08-07T13:47:09.848Z,23.90
2022-08-07T13:50:35.582Z,23.31
2022-08-07T13:52:40.960Z,22.79
2022-08-07T13:55:26.371Z,23.19
2022-08-07T13:58:28.190Z,22.63
2022-08-07T14:01:10.815Z,22.77
2022-08-07T14:04:07.486Z,21.71
2022-08-07T14:06:36.958Z,21.93
2022-08-07T14:09:06.978Z,20.87
2022-08-07T14:11:53.536Z,20.27
2022-08-07T14:14:38.591Z,19.07
2022-08-07T14:17:51.414Z,19.68
2022-08-07T14:20:42.666Z,19.47
2022-08-07T14:22:51.680Z,19.23
2022-08-07T14:25:29.494Z,19.37
2022-08-07T14:28:13.437Z,18.33
2022-08-07T14:30:45.898Z,19.12
2022-08-07T14:33:15.222Z,18.93
2022-08-07T14:35:44.938Z,18.64
2022-08-07T14:38:24.741Z,18.51
2022-08-07T14:40:59.540Z,18.43
2022-08-07T14:43:59.201Z,18.69
2022-08-07T14:46:31.384Z,18.99
2022-08-07T14:49:00.120Z,18.67
2022-08-07T14:52:03.820Z,17.91
2022-08-07T14:54:41.731Z,18.42
2022-08-07T14:57:15.026Z,16.54
2022-08-07T15:00:04.770Z,17.15
2022-08-07T15:02:34.598Z,16.45
2022-08-07T15:05:02.505Z,16.86
2022-08-07T15:10:29.670Z,18.07
2022-08-07T15:13:06.408Z,18.26
2022-08-07T15:15:52.561Z,19.00
2022-08-07T15:18:28.534Z,19.58
2022-08-07T15:25:15.512Z,20.47
2022-08-07T15:26:51.591Z,20.88
2022-08-07T15:30:10.162Z,21.72
2022-08-07T15:32:12.446Z,21.69
2022-08-07T15:34:56.888Z,22.06
2022-08-07T15:38:17.485Z,22.55
2022-08-07T15:40:34.147Z,22.81
2022-08-07T15:43:33.222Z,23.41
2022-08-07T15:54:33.980Z,24.71
2022-08-07T15:57:02.900Z,24.85
2022-08-07T15:59:38.893Z,24.49
2022-08-07T16:02:08.551Z,24.84
2022-08-07T16:04:38.461Z,25.48
2022-08-07T16:08:33.520Z,25.09
2022-08-07T16:10:21.674Z,25.85
2022-08-07T16:13:39.532Z,25.81
2022-08-07T16:16:47.791Z,26.01
2022-08-07T16:19:12.513Z,26.26
2022-08-07T16:22:07.274Z,26.29
2022-08-07T16:24:56.307Z,26.58
2022-08-07T16:27:40.550Z,26.27
2022-08-07T16:30:30.080Z,26.21
2022-08-07T16:34:01.625Z,25.29
2022-08-07T16:36:19.760Z,25.62
2022-08-07T16:39:16.516Z,24.63
2022-08-07T16:42:09.563Z,24.15
2022-08-07T16:45:14.995Z,22.94
2022-08-07T16:47:55.934Z,22.50
2022-08-07T16:51:20.397Z,22.34
2022-08-07T16:54:02.608Z,23.52
2022-08-07T16:56:54.794Z,22.85
2022-08-07T16:59:48.790Z,23.00
2022-08-07T17:02:52.205Z,23.25
2022-08-07T17:06:19.276Z,23.43
2022-08-07T17:08:51.288Z,23.17
2022-08-07T17:12:04.936Z,23.70
2022-08-07T17:14:29.909Z,24.33
2022-08-07T17:17:02.580Z,24.35
2022-08-07T17:23:14.704Z,24.82
2022-08-07T17:25:55.950Z,25.10
2022-08-07T17:28:49.853Z,25.14
2022-08-07T17:31:23.219Z,25.90
2022-08-07T17:34:18.008Z,25.45
2022-08-07T17:37:08.925Z,25.58
2022-08-07T17:39:53.015Z,26.00
2022-08-07T17:42:35.637Z,26.25
2022-08-07T17:45:30.716Z,26.45
2022-08-07T17:48:30.934Z,26.29
2022-08-07T17:51:06.855Z,27.02
2022-08-07T17:54:00.407Z,27.24
2022-08-07T17:56:35.499Z,27.25
2022-08-07T17:59:36.040Z,27.30
2022-08-07T18:02:14.636Z,27.35
2022-08-07T18:05:20.677Z,27.74
2022-08-07T18:08:10.022Z,28.16
2022-08-07T18:12:06.220Z,28.13
2022-08-07T18:14:01.837Z,28.14
2022-08-07T18:16:57.744Z,28.27
2022-08-07T18:22:14.868Z,29.02
2022-08-07T18:24:51.122Z,29.53
2022-08-07T18:27:21.774Z,29.36
2022-08-07T18:30:06.172Z,29.71
2022-08-07T18:33:15.638Z,29.63
2022-08-07T18:36:33.529Z,30.31
2022-08-07T18:40:07.245Z,30.86
2022-08-07T18:42:04.174Z,31.05
2022-08-07T18:45:45.075Z,32.09
2022-08-07T18:48:01.450Z,31.31
2022-08-07T18:50:45.741Z,31.82
2022-08-07T18:53:37.054Z,32.02
2022-08-07T18:56:18.464Z,30.73
2022-08-07T18:59:03.400Z,32.29
2022-08-07T19:02:33.160Z,32.95
2022-08-07T19:05:15.050Z,33.58
2022-08-07T19:08:05.384Z,33.87
2022-08-07T19:10:51.733Z,34.25
2022-08-07T19:13:43.961Z,34.05
2022-08-07T19:17:01.093Z,34.64
2022-08-07T19:19:58.826Z,34.58
2022-08-07T19:22:40.470Z,34.93
2022-08-07T19:26:21.799Z,36.05
2022-08-07T19:28:57.981Z,35.96
2022-08-07T19:31:43.626Z,35.85
2022-08-07T19:33:58.044Z,36.14
2022-08-07T19:36:27.792Z,36.49
2022-08-07T19:38:58.412Z,36.68
2022-08-07T19:41:44.709Z,36.84
2022-08-07T19:44:23.924Z,37.13
2022-08-07T19:47:05.721Z,36.65
2022-08-07T19:49:57.346Z,36.72
2022-08-07T19:52:30.729Z,36.84
2022-08-07T19:54:59.823Z,37.24
2022-08-07T19:58:01.449Z,37.87
2022-08-07T20:00:28.967Z,37.89
2022-08-07T20:03:35.472Z,38.55
2022-08-07T20:06:02.342Z,38.62
2022-08-07T20:08:32.840Z,39.06
2022-08-07T20:11:09.896Z,38.88
2022-08-07T20:13:51.547Z,39.12
2022-08-07T20:16:35.655Z,38.65
2022-08-07T20:19:06.101Z,38.92
2022-08-07T20:21:41.799Z,38.54
2022-08-07T20:24:18.439Z,38.55
2022-08-07T20:26:50.465Z,38.69
2022-08-07T20:29:47.872Z,39.15
2022-08-07T20:32:23.187Z,38.89
2022-08-07T20:34:56.116Z,39.15
2022-08-07T20:37:37.047Z,39.32
2022-08-07T20:40:32.640Z,39.51
2022-08-07T20:43:02.850Z,39.51
2022-08-07T20:46:25.746Z,38.63
2022-08-07T20:48:29.640Z,38.41
2022-08-07T20:51:02.901Z,39.70
2022-08-07T20:54:04.203Z,40.42
2022-08-07T20:56:26.503Z,39.77
2022-08-07T20:58:56.703Z,39.98
2022-08-07T21:01:26.205Z,40.17
2022-08-07T21:04:19.859Z,40.54
2022-08-07T21:06:53.458Z,40.22
2022-08-07T21:09:24.566Z,40.36
2022-08-07T21:11:57.580Z,40.55
2022-08-07T21:14:34.293Z,40.90
2022-08-07T21:18:00.385Z,41.04
2022-08-07T21:20:04.699Z,40.17
2022-08-07T21:22:39.047Z,41.01
2022-08-07T21:25:20.203Z,40.73
2022-08-07T21:28:02.038Z,41.39
2022-08-07T21:30:44.242Z,41.25
2022-08-07T21:33:41.139Z,41.10
2022-08-07T21:36:31.090Z,41.48
2022-08-07T21:39:51.845Z,41.53
2022-08-07T21:42:53.030Z,41.78
2022-08-07T21:46:08.083Z,42.28
2022-08-07T21:48:33.783Z,41.81
2022-08-07T21:51:33.955Z,41.92
2022-08-07T21:54:33.795Z,42.33
2022-08-07T21:57:30.924Z,42.34
2022-08-07T22:00:20.508Z,43.14
2022-08-07T22:03:10.947Z,43.12
2022-08-07T22:05:52.714Z,44.00
2022-08-07T22:08:23.325Z,43.69
2022-08-07T22:10:57.836Z,43.85
2022-08-07T22:13:50.407Z,43.58
2022-08-07T22:16:42.182Z,43.96
2022-08-07T22:19:18.145Z,44.07
2022-08-07T22:22:21.328Z,43.70
2022-08-07T22:24:55.117Z,44.30
2022-08-07T22:28:03.243Z,44.44
2022-08-07T22:30:22.196Z,44.63
2022-08-07T22:33:04.920Z,44.62
2022-08-07T22:36:06.565Z,44.31
2022-08-07T22:38:52.090Z,45.11
2022-08-07T22:42:03.751Z,44.79
2022-08-07T22:44:25.344Z,45.00
2022-08-07T22:47:29.739Z,45.04
2022-08-07T22:50:05.515Z,44.92
2022-08-07T22:53:47.151Z,44.06
2022-08-07T22:56:08.885Z,44.29
2022-08-07T22:58:57.179Z,45.31
2022-08-07T23:02:04.505Z,45.48
2022-08-07T23:06:08.908Z,45.13
2022-08-07T23:07:57.222Z,45.23
2022-08-07T23:10:36.329Z,45.17
2022-08-07T23:13:48.956Z,46.22
2022-08-07T23:17:08.574Z,45.63
2022-08-07T23:20:14.672Z,46.51
2022-08-07T23:22:41.147Z,45.85
2022-08-07T23:25:29.537Z,45.82
2022-08-07T23:28:20.650Z,46.52
2022-08-07T23:31:42.874Z,47.06
2022-08-07T23:34:37.799Z,47.12
2022-08-07T23:38:00.475Z,46.04
2022-08-07T23:40:43.859Z,46.41
2022-08-07T23:43:38.226Z,46.38
2022-08-07T23:46:43.168Z,46.61
2022-08-07T23:49:50.386Z,47.03
2022-08-07T23:53:11.780Z,47.14
2022-08-07T23:55:53.267Z,47.25
2022-08-07T23:58:36.339Z,47.43
